sensor_id;sensor_type;location;lat;lon;timestamp;P1;durP1;ratioP1;P2;durP2;ratioP2
4700;SDS011;8724;51.272;6.554;2022-10-15T00:01:28;5.10;;;4.70;;
4700;SDS011;8724;51.272;6.554;2022-10-15T00:03:56;5.50;;;5.00;;
4700;SDS011;8724;51.272;6.554;2022-10-15T00:06:31;6.63;;;5.40;;
4700;SDS011;8724;51.272;6.554;2022-10-15T00:09:01;6.67;;;5.50;;
4700;SDS011;8724;51.272;6.554;2022-10-15T00:11:29;5.77;;;5.27;;
4700;SDS011;8724;51.272;6.554;2022-10-15T00:13:58;7.70;;;6.30;;
4700;SDS011;8724;51.272;6.554;2022-10-15T00:16:27;5.97;;;5.43;;
4700;SDS011;8724;51.272;6.554;2022-10-15T00:18:57;6.70;;;6.10;;
4700;SDS011;8724;51.272;6.554;2022-10-15T00:21:26;6.90;;;6.20;;
4700;SDS011;8724;51.272;6.554;2022-10-15T00:23:54;7.70;;;6.50;;
4700;SDS011;8724;51.272;6.554;2022-10-15T00:26:25;7.77;;;7.00;;
4700;SDS011;8724;51.272;6.554;2022-10-15T00:28:55;7.13;;;6.47;;
4700;SDS011;8724;51.272;6.554;2022-10-15T00:31:26;6.33;;;5.73;;
4700;SDS011;8724;51.272;6.554;2022-10-15T00:33:56;8.33;;;7.63;;
4700;SDS011;8724;51.272;6.554;2022-10-15T00:36:26;7.00;;;6.40;;
4700;SDS011;8724;51.272;6.554;2022-10-15T00:38:56;7.47;;;6.77;;
4700;SDS011;8724;51.272;6.554;2022-10-15T00:41:26;6.93;;;6.33;;
4700;SDS011;8724;51.272;6.554;2022-10-15T00:43:56;7.27;;;6.70;;
4700;SDS011;8724;51.272;6.554;2022-10-15T00:46:26;6.70;;;6.20;;
4700;SDS011;8724;51.272;6.554;2022-10-15T00:48:59;8.53;;;7.87;;
4700;SDS011;8724;51.272;6.554;2022-10-15T00:51:36;7.20;;;6.50;;
4700;SDS011;8724;51.272;6.554;2022-10-15T00:54:09;6.77;;;6.17;;
4700;SDS011;8724;51.272;6.554;2022-10-15T00:56:39;6.90;;;6.30;;
4700;SDS011;8724;51.272;6.554;2022-10-15T00:59:10;7.17;;;6.57;;
4700;SDS011;8724;51.272;6.554;2022-10-15T01:01:40;7.60;;;6.90;;
4700;SDS011;8724;51.272;6.554;2022-10-15T01:04:10;9.83;;;6.90;;
4700;SDS011;8724;51.272;6.554;2022-10-15T01:06:39;7.33;;;6.73;;
4700;SDS011;8724;51.272;6.554;2022-10-15T01:09:07;7.47;;;6.60;;
4700;SDS011;8724;51.272;6.554;2022-10-15T01:11:37;6.80;;;6.20;;
4700;SDS011;8724;51.272;6.554;2022-10-15T01:14:17;7.13;;;6.53;;
4700;SDS011;8724;51.272;6.554;2022-10-15T01:16:54;6.10;;;5.60;;
4700;SDS011;8724;51.272;6.554;2022-10-15T01:19:41;7.13;;;6.43;;
4700;SDS011;8724;51.272;6.554;2022-10-15T01:22:45;7.27;;;6.57;;
4700;SDS011;8724;51.272;6.554;2022-10-15T01:25:28;7.90;;;6.57;;
4700;SDS011;8724;51.272;6.554;2022-10-15T01:28:10;6.40;;;5.93;;
4700;SDS011;8724;51.272;6.554;2022-10-15T01:30:52;6.37;;;5.77;;
4700;SDS011;8724;51.272;6.554;2022-10-15T01:33:27;7.17;;;6.47;;
4700;SDS011;8724;51.272;6.554;2022-10-15T01:36:05;11.07;;;7.00;;
4700;SDS011;8724;51.272;6.554;2022-10-15T01:38:47;7.90;;;7.20;;
4700;SDS011;8724;51.272;6.554;2022-10-15T01:41:24;6.50;;;5.90;;
4700;SDS011;8724;51.272;6.554;2022-10-15T01:43:59;7.40;;;6.27;;
4700;SDS011;8724;51.272;6.554;2022-10-15T01:46:59;7.20;;;6.50;;
4700;SDS011;8724;51.272;6.554;2022-10-15T01:49:31;5.93;;;5.43;;
4700;SDS011;8724;51.272;6.554;2022-10-15T01:52:04;7.47;;;5.80;;
4700;SDS011;8724;51.272;6.554;2022-10-15T01:54:36;8.07;;;6.63;;
4700;SDS011;8724;51.272;6.554;2022-10-15T01:57:06;6.60;;;6.00;;
4700;SDS011;8724;51.272;6.554;2022-10-15T01:59:38;7.70;;;7.00;;
4700;SDS011;8724;51.272;6.554;2022-10-15T02:02:09;6.70;;;6.10;;
4700;SDS011;8724;51.272;6.554;2022-10-15T02:04:39;7.10;;;6.20;;
4700;SDS011;8724;51.272;6.554;2022-10-15T02:07:07;6.90;;;6.30;;
4700;SDS011;8724;51.272;6.554;2022-10-15T02:09:41;6.10;;;5.60;;
4700;SDS011;8724;51.272;6.554;2022-10-15T02:12:20;6.70;;;6.00;;
4700;SDS011;8724;51.272;6.554;2022-10-15T02:15:02;7.13;;;6.43;;
4700;SDS011;8724;51.272;6.554;2022-10-15T02:17:38;6.60;;;6.00;;
4700;SDS011;8724;51.272;6.554;2022-10-15T02:20:11;7.20;;;5.93;;
4700;SDS011;8724;51.272;6.554;2022-10-15T02:22:43;7.13;;;6.43;;
4700;SDS011;8724;51.272;6.554;2022-10-15T02:25:17;6.87;;;6.27;;
4700;SDS011;8724;51.272;6.554;2022-10-15T02:27:48;6.77;;;6.17;;
4700;SDS011;8724;51.272;6.554;2022-10-15T02:30:19;6.70;;;6.00;;
4700;SDS011;8724;51.272;6.554;2022-10-15T02:32:50;7.40;;;6.80;;
4700;SDS011;8724;51.272;6.554;2022-10-15T02:35:20;7.80;;;7.00;;
4700;SDS011;8724;51.272;6.554;2022-10-15T02:37:51;7.20;;;6.50;;
4700;SDS011;8724;51.272;6.554;2022-10-15T02:40:22;7.30;;;6.57;;
4700;SDS011;8724;51.272;6.554;2022-10-15T02:42:53;7.87;;;7.17;;
4700;SDS011;8724;51.272;6.554;2022-10-15T02:45:22;6.43;;;5.83;;
4700;SDS011;8724;51.272;6.554;2022-10-15T02:47:52;8.20;;;7.50;;
4700;SDS011;8724;51.272;6.554;2022-10-15T02:50:23;8.00;;;7.40;;
4700;SDS011;8724;51.272;6.554;2022-10-15T02:52:51;8.80;;;7.90;;
4700;SDS011;8724;51.272;6.554;2022-10-15T02:55:20;7.80;;;6.53;;
4700;SDS011;8724;51.272;6.554;2022-10-15T02:57:48;8.13;;;7.40;;
4700;SDS011;8724;51.272;6.554;2022-10-15T03:00:17;8.27;;;7.57;;
4700;SDS011;8724;51.272;6.554;2022-10-15T03:02:47;8.50;;;7.70;;
4700;SDS011;8724;51.272;6.554;2022-10-15T03:05:19;7.93;;;7.33;;
4700;SDS011;8724;51.272;6.554;2022-10-15T03:07:47;8.77;;;8.03;;
4700;SDS011;8724;51.272;6.554;2022-10-15T03:10:16;8.57;;;7.73;;
4700;SDS011;8724;51.272;6.554;2022-10-15T03:12:44;9.07;;;8.17;;
4700;SDS011;8724;51.272;6.554;2022-10-15T03:15:13;8.07;;;7.37;;
4700;SDS011;8724;51.272;6.554;2022-10-15T03:17:44;8.63;;;7.83;;
4700;SDS011;8724;51.272;6.554;2022-10-15T03:20:15;7.20;;;6.60;;
4700;SDS011;8724;51.272;6.554;2022-10-15T03:22:44;8.00;;;7.30;;
4700;SDS011;8724;51.272;6.554;2022-10-15T03:25:13;8.17;;;7.47;;
4700;SDS011;8724;51.272;6.554;2022-10-15T03:27:41;7.70;;;7.10;;
4700;SDS011;8724;51.272;6.554;2022-10-15T03:30:21;9.00;;;8.17;;
4700;SDS011;8724;51.272;6.554;2022-10-15T03:32:50;9.40;;;8.50;;
4700;SDS011;8724;51.272;6.554;2022-10-15T03:35:19;9.57;;;8.53;;
4700;SDS011;8724;51.272;6.554;2022-10-15T03:37:48;9.13;;;8.33;;
4700;SDS011;8724;51.272;6.554;2022-10-15T03:40:18;9.07;;;8.33;;
4700;SDS011;8724;51.272;6.554;2022-10-15T03:42:52;8.03;;;7.27;;
4700;SDS011;8724;51.272;6.554;2022-10-15T03:45:23;20.07;;;17.10;;
4700;SDS011;8724;51.272;6.554;2022-10-15T03:48:14;41.13;;;33.10;;
4700;SDS011;8724;51.272;6.554;2022-10-15T03:50:44;27.17;;;24.00;;
4700;SDS011;8724;51.272;6.554;2022-10-15T03:53:15;17.07;;;15.23;;
4700;SDS011;8724;51.272;6.554;2022-10-15T03:55:44;12.83;;;11.47;;
4700;SDS011;8724;51.272;6.554;2022-10-15T03:58:17;10.93;;;9.93;;
4700;SDS011;8724;51.272;6.554;2022-10-15T04:00:55;8.90;;;8.10;;
4700;SDS011;8724;51.272;6.554;2022-10-15T04:03:24;8.50;;;7.70;;
4700;SDS011;8724;51.272;6.554;2022-10-15T04:05:53;7.87;;;7.17;;
4700;SDS011;8724;51.272;6.554;2022-10-15T04:08:32;7.83;;;7.13;;
4700;SDS011;8724;51.272;6.554;2022-10-15T04:11:16;6.50;;;5.90;;
4700;SDS011;8724;51.272;6.554;2022-10-15T04:13:52;7.97;;;6.70;;
4700;SDS011;8724;51.272;6.554;2022-10-15T04:16:21;7.83;;;7.23;;
4700;SDS011;8724;51.272;6.554;2022-10-15T04:18:53;25.90;;;23.23;;
4700;SDS011;8724;51.272;6.554;2022-10-15T04:21:24;88.57;;;67.47;;
4700;SDS011;8724;51.272;6.554;2022-10-15T04:24:00;57.33;;;44.67;;
4700;SDS011;8724;51.272;6.554;2022-10-15T04:26:34;33.43;;;28.13;;
4700;SDS011;8724;51.272;6.554;2022-10-15T04:29:04;23.40;;;19.07;;
4700;SDS011;8724;51.272;6.554;2022-10-15T04:31:35;13.83;;;12.30;;
4700;SDS011;8724;51.272;6.554;2022-10-15T04:34:04;11.80;;;10.63;;
4700;SDS011;8724;51.272;6.554;2022-10-15T04:36:34;12.60;;;8.80;;
4700;SDS011;8724;51.272;6.554;2022-10-15T04:39:20;9.03;;;7.90;;
4700;SDS011;8724;51.272;6.554;2022-10-15T04:41:51;11.90;;;7.80;;
4700;SDS011;8724;51.272;6.554;2022-10-15T04:44:27;8.17;;;7.07;;
4700;SDS011;8724;51.272;6.554;2022-10-15T04:46:59;8.53;;;7.73;;
4700;SDS011;8724;51.272;6.554;2022-10-15T04:49:35;7.90;;;7.10;;
4700;SDS011;8724;51.272;6.554;2022-10-15T04:52:12;7.13;;;6.53;;
4700;SDS011;8724;51.272;6.554;2022-10-15T04:54:51;12.83;;;11.50;;
4700;SDS011;8724;51.272;6.554;2022-10-15T04:57:23;57.80;;;46.20;;
4700;SDS011;8724;51.272;6.554;2022-10-15T04:59:55;49.43;;;38.17;;
4700;SDS011;8724;51.272;6.554;2022-10-15T05:02:31;29.77;;;24.40;;
4700;SDS011;8724;51.272;6.554;2022-10-15T05:05:32;17.00;;;15.13;;
4700;SDS011;8724;51.272;6.554;2022-10-15T05:08:03;12.53;;;11.33;;
4700;SDS011;8724;51.272;6.554;2022-10-15T05:11:00;11.03;;;10.03;;
4700;SDS011;8724;51.272;6.554;2022-10-15T05:13:34;8.93;;;8.00;;
4700;SDS011;8724;51.272;6.554;2022-10-15T05:16:08;8.90;;;7.90;;
4700;SDS011;8724;51.272;6.554;2022-10-15T05:18:41;7.93;;;7.13;;
4700;SDS011;8724;51.272;6.554;2022-10-15T05:21:12;6.83;;;6.23;;
4700;SDS011;8724;51.272;6.554;2022-10-15T05:23:44;7.00;;;6.30;;
4700;SDS011;8724;51.272;6.554;2022-10-15T05:26:43;7.07;;;6.37;;
4700;SDS011;8724;51.272;6.554;2022-10-15T05:29:13;8.43;;;6.50;;
4700;SDS011;8724;51.272;6.554;2022-10-15T05:31:44;7.20;;;6.60;;
4700;SDS011;8724;51.272;6.554;2022-10-15T05:34:20;7.83;;;7.10;;
4700;SDS011;8724;51.272;6.554;2022-10-15T05:36:56;6.80;;;6.20;;
4700;SDS011;8724;51.272;6.554;2022-10-15T05:39:28;7.03;;;6.33;;
4700;SDS011;8724;51.272;6.554;2022-10-15T05:42:00;6.90;;;6.27;;
4700;SDS011;8724;51.272;6.554;2022-10-15T05:44:37;8.17;;;6.80;;
4700;SDS011;8724;51.272;6.554;2022-10-15T05:47:08;7.10;;;6.40;;
4700;SDS011;8724;51.272;6.554;2022-10-15T05:49:39;8.43;;;7.20;;
4700;SDS011;8724;51.272;6.554;2022-10-15T05:52:13;8.13;;;6.90;;
4700;SDS011;8724;51.272;6.554;2022-10-15T05:55:02;7.40;;;6.70;;
4700;SDS011;8724;51.272;6.554;2022-10-15T05:57:33;7.33;;;6.73;;
4700;SDS011;8724;51.272;6.554;2022-10-15T06:00:02;6.73;;;6.10;;
4700;SDS011;8724;51.272;6.554;2022-10-15T06:02:37;7.17;;;6.47;;
4700;SDS011;8724;51.272;6.554;2022-10-15T06:05:06;7.67;;;6.50;;
4700;SDS011;8724;51.272;6.554;2022-10-15T06:07:34;6.93;;;6.10;;
4700;SDS011;8724;51.272;6.554;2022-10-15T06:10:03;7.40;;;6.37;;
4700;SDS011;8724;51.272;6.554;2022-10-15T06:12:34;7.07;;;6.37;;
4700;SDS011;8724;51.272;6.554;2022-10-15T06:15:04;7.60;;;6.83;;
4700;SDS011;8724;51.272;6.554;2022-10-15T06:17:32;8.57;;;7.00;;
4700;SDS011;8724;51.272;6.554;2022-10-15T06:20:01;7.70;;;6.20;;
4700;SDS011;8724;51.272;6.554;2022-10-15T06:22:29;6.77;;;6.03;;
4700;SDS011;8724;51.272;6.554;2022-10-15T06:24:57;6.47;;;5.87;;
4700;SDS011;8724;51.272;6.554;2022-10-15T06:27:26;7.67;;;6.90;;
4700;SDS011;8724;51.272;6.554;2022-10-15T06:29:57;10.50;;;7.20;;
4700;SDS011;8724;51.272;6.554;2022-10-15T06:32:25;8.17;;;7.20;;
4700;SDS011;8724;51.272;6.554;2022-10-15T06:34:53;11.50;;;7.23;;
4700;SDS011;8724;51.272;6.554;2022-10-15T06:37:21;8.97;;;7.60;;
4700;SDS011;8724;51.272;6.554;2022-10-15T06:39:53;8.80;;;8.00;;
4700;SDS011;8724;51.272;6.554;2022-10-15T06:42:21;9.23;;;8.30;;
4700;SDS011;8724;51.272;6.554;2022-10-15T06:44:53;9.50;;;8.23;;
4700;SDS011;8724;51.272;6.554;2022-10-15T06:47:23;10.00;;;8.50;;
4700;SDS011;8724;51.272;6.554;2022-10-15T06:49:52;11.80;;;9.73;;
4700;SDS011;8724;51.272;6.554;2022-10-15T06:52:20;9.43;;;8.37;;
4700;SDS011;8724;51.272;6.554;2022-10-15T06:54:50;10.47;;;9.03;;
4700;SDS011;8724;51.272;6.554;2022-10-15T06:57:20;10.80;;;9.67;;
4700;SDS011;8724;51.272;6.554;2022-10-15T06:59:51;11.37;;;10.17;;
4700;SDS011;8724;51.272;6.554;2022-10-15T07:02:20;12.70;;;11.17;;
4700;SDS011;8724;51.272;6.554;2022-10-15T07:04:50;14.53;;;10.73;;
4700;SDS011;8724;51.272;6.554;2022-10-15T07:07:19;13.77;;;12.27;;
4700;SDS011;8724;51.272;6.554;2022-10-15T07:09:47;14.93;;;12.83;;
4700;SDS011;8724;51.272;6.554;2022-10-15T07:12:18;14.87;;;12.00;;
4700;SDS011;8724;51.272;6.554;2022-10-15T07:14:48;16.27;;;13.23;;
4700;SDS011;8724;51.272;6.554;2022-10-15T07:17:16;14.17;;;12.70;;
4700;SDS011;8724;51.272;6.554;2022-10-15T07:19:44;15.30;;;13.53;;
4700;SDS011;8724;51.272;6.554;2022-10-15T07:22:14;22.40;;;14.50;;
4700;SDS011;8724;51.272;6.554;2022-10-15T07:24:42;15.13;;;13.63;;
4700;SDS011;8724;51.272;6.554;2022-10-15T07:27:11;19.60;;;14.13;;
4700;SDS011;8724;51.272;6.554;2022-10-15T07:29:44;15.27;;;13.53;;
4700;SDS011;8724;51.272;6.554;2022-10-15T07:32:13;14.27;;;12.77;;
4700;SDS011;8724;51.272;6.554;2022-10-15T07:34:41;16.03;;;13.23;;
4700;SDS011;8724;51.272;6.554;2022-10-15T07:37:10;13.60;;;12.20;;
4700;SDS011;8724;51.272;6.554;2022-10-15T07:39:40;13.63;;;12.23;;
4700;SDS011;8724;51.272;6.554;2022-10-15T07:42:08;14.27;;;12.77;;
4700;SDS011;8724;51.272;6.554;2022-10-15T07:44:41;17.80;;;13.60;;
4700;SDS011;8724;51.272;6.554;2022-10-15T07:47:09;13.40;;;11.97;;
4700;SDS011;8724;51.272;6.554;2022-10-15T07:49:37;13.60;;;12.30;;
4700;SDS011;8724;51.272;6.554;2022-10-15T07:52:06;12.33;;;10.60;;
4700;SDS011;8724;51.272;6.554;2022-10-15T07:54:34;14.60;;;11.27;;
4700;SDS011;8724;51.272;6.554;2022-10-15T07:57:04;11.87;;;10.70;;
4700;SDS011;8724;51.272;6.554;2022-10-15T07:59:33;14.00;;;11.67;;
4700;SDS011;8724;51.272;6.554;2022-10-15T08:02:02;14.80;;;13.30;;
4700;SDS011;8724;51.272;6.554;2022-10-15T08:04:30;12.60;;;11.30;;
4700;SDS011;8724;51.272;6.554;2022-10-15T08:07:00;13.87;;;11.50;;
4700;SDS011;8724;51.272;6.554;2022-10-15T08:09:33;11.97;;;10.77;;
4700;SDS011;8724;51.272;6.554;2022-10-15T08:12:02;11.53;;;10.43;;
4700;SDS011;8724;51.272;6.554;2022-10-15T08:14:33;13.30;;;11.20;;
4700;SDS011;8724;51.272;6.554;2022-10-15T08:17:03;11.70;;;10.60;;
4700;SDS011;8724;51.272;6.554;2022-10-15T08:19:32;9.87;;;8.87;;
4700;SDS011;8724;51.272;6.554;2022-10-15T08:22:00;9.33;;;8.43;;
4700;SDS011;8724;51.272;6.554;2022-10-15T08:24:29;11.23;;;10.17;;
4700;SDS011;8724;51.272;6.554;2022-10-15T08:26:57;10.90;;;9.80;;
4700;SDS011;8724;51.272;6.554;2022-10-15T08:29:25;10.30;;;9.07;;
4700;SDS011;8724;51.272;6.554;2022-10-15T08:31:55;10.00;;;9.00;;
4700;SDS011;8724;51.272;6.554;2022-10-15T08:34:25;8.57;;;7.73;;
4700;SDS011;8724;51.272;6.554;2022-10-15T08:36:53;49.73;;;40.47;;
4700;SDS011;8724;51.272;6.554;2022-10-15T08:39:22;77.73;;;65.67;;
4700;SDS011;8724;51.272;6.554;2022-10-15T08:41:50;75.57;;;59.57;;
4700;SDS011;8724;51.272;6.554;2022-10-15T08:44:22;49.63;;;42.03;;
4700;SDS011;8724;51.272;6.554;2022-10-15T08:46:53;37.67;;;33.40;;
4700;SDS011;8724;51.272;6.554;2022-10-15T08:49:32;29.70;;;24.77;;
4700;SDS011;8724;51.272;6.554;2022-10-15T08:52:13;20.23;;;17.90;;
4700;SDS011;8724;51.272;6.554;2022-10-15T08:54:46;15.07;;;13.57;;
4700;SDS011;8724;51.272;6.554;2022-10-15T08:57:16;14.17;;;11.90;;
4700;SDS011;8724;51.272;6.554;2022-10-15T08:59:52;9.57;;;8.40;;
4700;SDS011;8724;51.272;6.554;2022-10-15T09:02:29;8.63;;;7.23;;
4700;SDS011;8724;51.272;6.554;2022-10-15T09:05:02;5.63;;;5.13;;
4700;SDS011;8724;51.272;6.554;2022-10-15T09:07:45;24.33;;;21.20;;
4700;SDS011;8724;51.272;6.554;2022-10-15T09:10:25;55.90;;;42.77;;
4700;SDS011;8724;51.272;6.554;2022-10-15T09:12:59;41.43;;;34.00;;
4700;SDS011;8724;51.272;6.554;2022-10-15T09:15:31;28.10;;;23.33;;
4700;SDS011;8724;51.272;6.554;2022-10-15T09:18:04;20.00;;;17.37;;
4700;SDS011;8724;51.272;6.554;2022-10-15T09:20:40;13.53;;;11.63;;
4700;SDS011;8724;51.272;6.554;2022-10-15T09:23:08;10.60;;;8.60;;
4700;SDS011;8724;51.272;6.554;2022-10-15T09:25:41;8.27;;;7.20;;
4700;SDS011;8724;51.272;6.554;2022-10-15T09:28:16;5.60;;;3.90;;
4700;SDS011;8724;51.272;6.554;2022-10-15T09:30:50;3.30;;;3.03;;
4700;SDS011;8724;51.272;6.554;2022-10-15T09:33:26;2.70;;;2.50;;
4700;SDS011;8724;51.272;6.554;2022-10-15T09:36:05;1.80;;;1.70;;
4700;SDS011;8724;51.272;6.554;2022-10-15T09:38:41;1.80;;;1.70;;
4700;SDS011;8724;51.272;6.554;2022-10-15T09:41:18;2.03;;;1.93;;
4700;SDS011;8724;51.272;6.554;2022-10-15T09:43:56;1.47;;;1.30;;
4700;SDS011;8724;51.272;6.554;2022-10-15T09:46:41;1.73;;;1.63;;
4700;SDS011;8724;51.272;6.554;2022-10-15T09:49:13;1.47;;;1.37;;
4700;SDS011;8724;51.272;6.554;2022-10-15T09:51:50;1.23;;;1.23;;
4700;SDS011;8724;51.272;6.554;2022-10-15T09:54:26;1.53;;;1.43;;
4700;SDS011;8724;51.272;6.554;2022-10-15T09:57:03;1.40;;;1.30;;
4700;SDS011;8724;51.272;6.554;2022-10-15T09:59:35;1.13;;;1.07;;
4700;SDS011;8724;51.272;6.554;2022-10-15T10:02:09;2.10;;;1.30;;
4700;SDS011;8724;51.272;6.554;2022-10-15T10:04:47;1.10;;;1.10;;
4700;SDS011;8724;51.272;6.554;2022-10-15T10:07:32;1.37;;;1.10;;
4700;SDS011;8724;51.272;6.554;2022-10-15T10:10:03;1.30;;;1.30;;
4700;SDS011;8724;51.272;6.554;2022-10-15T10:12:34;2.10;;;1.13;;
4700;SDS011;8724;51.272;6.554;2022-10-15T10:15:05;1.20;;;1.10;;
4700;SDS011;8724;51.272;6.554;2022-10-15T10:17:50;2.20;;;1.10;;
4700;SDS011;8724;51.272;6.554;2022-10-15T10:20:21;1.70;;;1.60;;
4700;SDS011;8724;51.272;6.554;2022-10-15T10:22:52;2.63;;;1.77;;
4700;SDS011;8724;51.272;6.554;2022-10-15T10:25:34;2.60;;;1.73;;
4700;SDS011;8724;51.272;6.554;2022-10-15T10:28:13;1.53;;;1.43;;
4700;SDS011;8724;51.272;6.554;2022-10-15T10:30:48;2.20;;;1.50;;
4700;SDS011;8724;51.272;6.554;2022-10-15T10:33:20;1.80;;;1.50;;
4700;SDS011;8724;51.272;6.554;2022-10-15T10:35:54;1.30;;;1.20;;
4700;SDS011;8724;51.272;6.554;2022-10-15T10:38:24;1.40;;;1.30;;
4700;SDS011;8724;51.272;6.554;2022-10-15T10:40:55;1.43;;;1.33;;
4700;SDS011;8724;51.272;6.554;2022-10-15T10:43:30;1.50;;;1.40;;
4700;SDS011;8724;51.272;6.554;2022-10-15T10:46:08;1.73;;;1.40;;
4700;SDS011;8724;51.272;6.554;2022-10-15T10:48:47;1.30;;;1.20;;
4700;SDS011;8724;51.272;6.554;2022-10-15T10:51:18;1.20;;;1.20;;
4700;SDS011;8724;51.272;6.554;2022-10-15T10:53:53;14.87;;;12.40;;
4700;SDS011;8724;51.272;6.554;2022-10-15T10:56:27;40.80;;;32.83;;
4700;SDS011;8724;51.272;6.554;2022-10-15T10:59:02;31.60;;;26.37;;
4700;SDS011;8724;51.272;6.554;2022-10-15T11:01:36;19.67;;;16.67;;
4700;SDS011;8724;51.272;6.554;2022-10-15T11:04:07;13.43;;;11.80;;
4700;SDS011;8724;51.272;6.554;2022-10-15T11:06:56;12.50;;;9.43;;
4700;SDS011;8724;51.272;6.554;2022-10-15T11:09:33;9.67;;;6.30;;
4700;SDS011;8724;51.272;6.554;2022-10-15T11:12:13;5.63;;;5.03;;
4700;SDS011;8724;51.272;6.554;2022-10-15T11:14:53;3.50;;;3.17;;
4700;SDS011;8724;51.272;6.554;2022-10-15T11:17:33;3.03;;;2.80;;
4700;SDS011;8724;51.272;6.554;2022-10-15T11:20:22;2.03;;;1.93;;
4700;SDS011;8724;51.272;6.554;2022-10-15T11:23:19;2.10;;;2.00;;
4700;SDS011;8724;51.272;6.554;2022-10-15T11:25:57;1.70;;;1.60;;
4700;SDS011;8724;51.272;6.554;2022-10-15T11:28:39;1.40;;;1.30;;
4700;SDS011;8724;51.272;6.554;2022-10-15T11:31:19;1.43;;;1.33;;
4700;SDS011;8724;51.272;6.554;2022-10-15T11:34:09;1.17;;;1.17;;
4700;SDS011;8724;51.272;6.554;2022-10-15T11:36:55;1.27;;;1.17;;
4700;SDS011;8724;51.272;6.554;2022-10-15T11:39:39;1.27;;;1.17;;
4700;SDS011;8724;51.272;6.554;2022-10-15T11:42:17;1.30;;;1.20;;
4700;SDS011;8724;51.272;6.554;2022-10-15T11:45:02;1.63;;;1.23;;
4700;SDS011;8724;51.272;6.554;2022-10-15T11:47:55;2.57;;;1.10;;
4700;SDS011;8724;51.272;6.554;2022-10-15T11:50:29;1.20;;;1.00;;
4700;SDS011;8724;51.272;6.554;2022-10-15T11:53:05;1.23;;;1.23;;
4700;SDS011;8724;51.272;6.554;2022-10-15T11:55:56;1.50;;;1.40;;
4700;SDS011;8724;51.272;6.554;2022-10-15T11:58:31;0.90;;;0.90;;
4700;SDS011;8724;51.272;6.554;2022-10-15T12:01:04;1.23;;;1.17;;
4700;SDS011;8724;51.272;6.554;2022-10-15T12:03:40;1.30;;;1.20;;
4700;SDS011;8724;51.272;6.554;2022-10-15T12:06:15;1.40;;;1.30;;
4700;SDS011;8724;51.272;6.554;2022-10-15T12:08:47;0.93;;;0.93;;
4700;SDS011;8724;51.272;6.554;2022-10-15T12:11:24;1.20;;;1.10;;
4700;SDS011;8724;51.272;6.554;2022-10-15T12:14:04;2.20;;;1.07;;
4700;SDS011;8724;51.272;6.554;2022-10-15T12:16:45;1.30;;;1.20;;
4700;SDS011;8724;51.272;6.554;2022-10-15T12:19:25;1.13;;;1.13;;
4700;SDS011;8724;51.272;6.554;2022-10-15T12:22:01;1.20;;;1.10;;
4700;SDS011;8724;51.272;6.554;2022-10-15T12:24:50;1.57;;;1.47;;
4700;SDS011;8724;51.272;6.554;2022-10-15T12:27:26;1.83;;;1.73;;
4700;SDS011;8724;51.272;6.554;2022-10-15T12:32:59;0.90;;;0.87;;
4700;SDS011;8724;51.272;6.554;2022-10-15T12:35:30;1.40;;;1.30;;
4700;SDS011;8724;51.272;6.554;2022-10-15T12:38:15;0.70;;;0.70;;
4700;SDS011;8724;51.272;6.554;2022-10-15T12:40:54;1.17;;;0.93;;
4700;SDS011;8724;51.272;6.554;2022-10-15T12:43:27;0.80;;;0.80;;
4700;SDS011;8724;51.272;6.554;2022-10-15T12:45:58;0.90;;;0.90;;
4700;SDS011;8724;51.272;6.554;2022-10-15T12:48:32;0.90;;;0.70;;
4700;SDS011;8724;51.272;6.554;2022-10-15T12:57:02;0.77;;;0.70;;
4700;SDS011;8724;51.272;6.554;2022-10-15T12:59:55;0.63;;;0.63;;
4700;SDS011;8724;51.272;6.554;2022-10-15T13:02:32;0.80;;;0.70;;
4700;SDS011;8724;51.272;6.554;2022-10-15T13:05:04;36.27;;;30.77;;
4700;SDS011;8724;51.272;6.554;2022-10-15T13:07:36;35.67;;;30.30;;
4700;SDS011;8724;51.272;6.554;2022-10-15T13:10:16;26.47;;;23.50;;
4700;SDS011;8724;51.272;6.554;2022-10-15T13:12:50;18.20;;;15.13;;
4700;SDS011;8724;51.272;6.554;2022-10-15T13:15:22;11.30;;;9.53;;
4700;SDS011;8724;51.272;6.554;2022-10-15T13:17:54;8.70;;;7.20;;
4700;SDS011;8724;51.272;6.554;2022-10-15T13:20:29;6.03;;;5.53;;
4700;SDS011;8724;51.272;6.554;2022-10-15T13:23:08;6.10;;;5.13;;
4700;SDS011;8724;51.272;6.554;2022-10-15T13:26:11;3.40;;;3.13;;
4700;SDS011;8724;51.272;6.554;2022-10-15T13:28:44;2.27;;;2.13;;
4700;SDS011;8724;51.272;6.554;2022-10-15T13:31:21;2.27;;;1.80;;
4700;SDS011;8724;51.272;6.554;2022-10-15T13:33:57;1.30;;;1.20;;
4700;SDS011;8724;51.272;6.554;2022-10-15T13:36:28;1.03;;;0.93;;
4700;SDS011;8724;51.272;6.554;2022-10-15T13:38:59;1.53;;;1.00;;
4700;SDS011;8724;51.272;6.554;2022-10-15T13:41:32;1.23;;;1.13;;
4700;SDS011;8724;51.272;6.554;2022-10-15T13:44:03;1.00;;;1.00;;
4700;SDS011;8724;51.272;6.554;2022-10-15T13:46:35;1.10;;;1.00;;
4700;SDS011;8724;51.272;6.554;2022-10-15T13:49:08;0.77;;;0.77;;
4700;SDS011;8724;51.272;6.554;2022-10-15T13:51:39;1.13;;;0.90;;
4700;SDS011;8724;51.272;6.554;2022-10-15T13:54:11;1.00;;;1.00;;
4700;SDS011;8724;51.272;6.554;2022-10-15T13:56:45;1.07;;;0.97;;
4700;SDS011;8724;51.272;6.554;2022-10-15T13:59:18;1.03;;;1.03;;
4700;SDS011;8724;51.272;6.554;2022-10-15T14:01:48;1.50;;;1.10;;
4700;SDS011;8724;51.272;6.554;2022-10-15T14:04:21;0.83;;;0.83;;
4700;SDS011;8724;51.272;6.554;2022-10-15T14:06:51;1.10;;;1.00;;
4700;SDS011;8724;51.272;6.554;2022-10-15T14:09:30;1.00;;;0.87;;
4700;SDS011;8724;51.272;6.554;2022-10-15T14:12:00;1.10;;;1.00;;
4700;SDS011;8724;51.272;6.554;2022-10-15T14:14:32;0.93;;;0.93;;
4700;SDS011;8724;51.272;6.554;2022-10-15T14:17:03;0.73;;;0.73;;
4700;SDS011;8724;51.272;6.554;2022-10-15T14:19:34;1.20;;;0.70;;
4700;SDS011;8724;51.272;6.554;2022-10-15T14:22:14;3.00;;;1.10;;
4700;SDS011;8724;51.272;6.554;2022-10-15T14:24:44;6.20;;;5.60;;
4700;SDS011;8724;51.272;6.554;2022-10-15T14:27:16;10.30;;;7.90;;
4700;SDS011;8724;51.272;6.554;2022-10-15T14:29:48;7.00;;;5.10;;
4700;SDS011;8724;51.272;6.554;2022-10-15T14:32:20;4.10;;;2.33;;
4700;SDS011;8724;51.272;6.554;2022-10-15T14:34:51;1.53;;;1.43;;
4700;SDS011;8724;51.272;6.554;2022-10-15T14:40:14;1.63;;;1.00;;
4700;SDS011;8724;51.272;6.554;2022-10-15T14:42:46;2.20;;;1.23;;
4700;SDS011;8724;51.272;6.554;2022-10-15T14:45:20;2.67;;;0.87;;
4700;SDS011;8724;51.272;6.554;2022-10-15T14:47:53;3.67;;;1.37;;
4700;SDS011;8724;51.272;6.554;2022-10-15T14:50:24;0.80;;;0.80;;
4700;SDS011;8724;51.272;6.554;2022-10-15T14:52:54;0.80;;;0.80;;
4700;SDS011;8724;51.272;6.554;2022-10-15T14:55:27;0.90;;;0.90;;
4700;SDS011;8724;51.272;6.554;2022-10-15T14:57:59;0.90;;;0.90;;
4700;SDS011;8724;51.272;6.554;2022-10-15T15:00:34;1.27;;;1.17;;
4700;SDS011;8724;51.272;6.554;2022-10-15T15:03:12;2.10;;;1.00;;
4700;SDS011;8724;51.272;6.554;2022-10-15T15:05:43;1.10;;;1.00;;
4700;SDS011;8724;51.272;6.554;2022-10-15T15:08:12;1.10;;;1.10;;
4700;SDS011;8724;51.272;6.554;2022-10-15T15:10:41;1.10;;;1.03;;
4700;SDS011;8724;51.272;6.554;2022-10-15T15:13:11;1.50;;;1.10;;
4700;SDS011;8724;51.272;6.554;2022-10-15T15:15:44;0.90;;;0.90;;
4700;SDS011;8724;51.272;6.554;2022-10-15T15:18:13;1.23;;;0.90;;
4700;SDS011;8724;51.272;6.554;2022-10-15T15:20:42;1.30;;;1.20;;
4700;SDS011;8724;51.272;6.554;2022-10-15T15:23:12;0.93;;;0.93;;
4700;SDS011;8724;51.272;6.554;2022-10-15T15:25:43;0.93;;;0.93;;
4700;SDS011;8724;51.272;6.554;2022-10-15T15:28:12;1.40;;;1.30;;
4700;SDS011;8724;51.272;6.554;2022-10-15T15:30:43;2.60;;;1.67;;
4700;SDS011;8724;51.272;6.554;2022-10-15T15:33:12;1.43;;;1.33;;
4700;SDS011;8724;51.272;6.554;2022-10-15T15:35:43;2.20;;;1.30;;
4700;SDS011;8724;51.272;6.554;2022-10-15T15:38:16;1.53;;;1.43;;
4700;SDS011;8724;51.272;6.554;2022-10-15T15:40:45;1.40;;;1.30;;
4700;SDS011;8724;51.272;6.554;2022-10-15T15:43:14;1.40;;;1.20;;
4700;SDS011;8724;51.272;6.554;2022-10-15T15:45:45;14.53;;;12.90;;
4700;SDS011;8724;51.272;6.554;2022-10-15T15:48:15;48.87;;;37.47;;
4700;SDS011;8724;51.272;6.554;2022-10-15T15:50:43;24.43;;;20.20;;
4700;SDS011;8724;51.272;6.554;2022-10-15T15:53:11;14.10;;;12.40;;
4700;SDS011;8724;51.272;6.554;2022-10-15T15:55:40;8.77;;;7.93;;
4700;SDS011;8724;51.272;6.554;2022-10-15T15:58:08;5.87;;;5.27;;